Oceanex Avalon — VOKJ — position and weather

sailwx.info

Track history (hours):
 
Tides and Currents Weather Stations Pressure Air Temp Water Temp Dewpoint Dewpoint Depression Visibility Wind Speed Wind Dir Waves Ship Positions

Oceanex Avalon

Last reported at 2017-Oct-22 17:00 UTC. Time now 2017-Oct-22 17:46 UTC.
Position N 49°24' W 064°06'.

Length 149 m; draft 7.8 m.

Type: Cargo ship. MMSI: 316006074.

Wind from 300 at 15 knots

Barometer 1033.2 mb
Air temperature 0.8 ° C
Dewpoint -5.7 ° C

Date/timePositionNaut miles runAvg speedWind from/ knotsBaromVisibWave heightAir tempDewpointWater temp
2017-Oct-22 17:00N 49°24' W 064°06'10 9.9 300 / 151033.2 0.8-5.7
2017-Oct-22 16:00N 49°18' W 063°54'10 9.9 310 / 161033.1 0.9-6.5
2017-Oct-22 15:00N 49°12' W 063°42'30 9.9 320 / 171033.3 0.8-6.5
2017-Oct-22 12:00N 48°54' W 063°06'8 7.9 330 / 191032.2 0.7-6.7
2017-Oct-22 11:00N 48°54' W 062°54'1313.3 330 / 171031.3 1.1-6.4
2017-Oct-22 10:00N 48°48' W 062°36'10 9.9 340 / 221029.7 1.2-6.6
2017-Oct-22 09:00N 48°42' W 062°24'7014.0 340 / 221028.8 1.8-5.2
2017-Oct-22 04:00N 48°06' W 060°54'3316.7 330 / 191023.4 5.0-4.4
2017-Oct-22 02:00N 47°48' W 060°12'1717.2 340 / 221021.2 6.1-1.0
2017-Oct-22 01:00N 47°42' W 059°48'1717.2 310 / 281020.1 6.8 1.6
2017-Oct-22 00:00N 47°36' W 059°24'1413.5 330 / 301018.3 6.4 2.4
2017-Oct-21 23:00N 47°30' W 059°06'6115.2 300 / 121018.7 5.9 1.7
2017-Oct-21 19:00N 47°30' W 057°36'1616.2 320 / 201011.2 8.0 2.0
2017-Oct-21 18:00N 47°30' W 057°12'1616.2 300 / 221009.3 8.5 2.7
2017-Oct-21 17:00N 47°30' W 056°48'3718.6 280 / 251007.2 9.1 3.6
2017-Oct-21 15:00N 47°06' W 056°06'1818.5 270 / 291006.8 8.7 4.2
2017-Oct-21 14:00N 46°48' W 056°00'1817.5 280 / 271006.2 8.8 4.1
2017-Oct-21 13:00N 46°42' W 055°36'1413.7 290 / 351005.1 8.7 3.8
2017-Oct-21 12:00N 46°36' W 055°18'1616.5 290 / 331003.7 8.9 3.9
2017-Oct-21 11:00N 46°36' W 054°54'1616.5 290 / 371001.9 8.7 3.2
2017-Oct-21 10:00N 46°36' W 054°30'1616.5 290 / 351000.5 8.4 3.2
2017-Oct-21 09:00N 46°36' W 054°06'1817.6 290 / 33999.4 8.5 3.3
2017-Oct-21 08:00N 46°30' W 053°42'3517.5 280 / 33998.2 8.9 3.7
2017-Oct-21 06:00N 46°42' W 052°54'5518.2 250 / 14998.0 7.8 4.5
2017-Oct-21 03:00N 47°36' W 052°42'218.0 250 / 11997.5 10.9 7.6
2017-Oct-21 02:53N 47°34' W 052°42'1 1.4
2017-Oct-21 02:21N 47°33' W 052°43'3 7.1
2017-Oct-21 02:00N 47°36' W 052°42'360.4 220 / 9998.4 11.0 8.1
2017-Oct-21 01:57N 47°33' W 052°43'0 0.0
2017-Oct-21 01:10N 47°33' W 052°43'314.6
2017-Oct-21 01:00N 47°36' W 052°42'3101.0 220 / 7999.0 11.6 9.2
2017-Oct-21 00:58N 47°33' W 052°43'0 0.0
2017-Oct-21 00:16N 47°33' W 052°43'3 9.3
2017-Oct-21 00:00N 47°36' W 052°42'320.4 230 / 10999.6 12.810.6
2017-Oct-20 23:52N 47°33' W 052°43'3 2.9
2017-Oct-20 23:00N 47°36' W 052°42'334.0 220 / 101000.3 13.311.2
2017-Oct-20 22:55N 47°33' W 052°43'0 0.0
2017-Oct-20 22:28N 47°33' W 052°43'3 5.4
2017-Oct-20 22:00N 47°36' W 052°42'3101.0 220 / 101001.0 13.411.1
2017-Oct-20 21:58N 47°33' W 052°43'0 0.0
2017-Oct-20 21:25N 47°33' W 052°43'3 1.8
2017-Oct-20 20:00N 47°36' W 052°42'3 2.9 220 / 131002.7 14.312.1
2017-Oct-20 19:07N 47°33' W 052°43'320.5
2017-Oct-20 19:00N 47°36' W 052°42'0 0.0 220 / 151003.2 14.512.8
2017-Oct-20 18:00N 47°36' W 052°42'0 0.0 220 / 191004.0 15.511.9
2017-Oct-20 17:00N 47°36' W 052°42'0 0.0 220 / 211005.3 15.811.6
2017-Oct-20 16:00N 47°36' W 052°42'0 0.0 220 / 181006.8 15.511.6
2017-Oct-20 15:00N 47°36' W 052°42'0 0.0 220 / 181008.8 15.211.1
2017-Oct-20 14:00N 47°36' W 052°42'0 0.0 210 / 131010.4 13.610.6
2017-Oct-20 13:00N 47°36' W 052°42'0 0.0 200 / 131012.2 12.310.0
2017-Oct-20 12:00N 47°36' W 052°42'4 4.0 220 / 161013.4 12.1 9.6
2017-Oct-20 11:00N 47°36' W 052°36'1818.5 180 / 171015.0 13.9 9.5
2017-Oct-20 10:00N 47°18' W 052°42'3718.5 200 / 231016.4 9.4 8.4
2017-Oct-20 08:00N 46°42' W 052°54'3919.5 200 / 191019.6 10.0 8.3
2017-Oct-20 06:00N 46°30' W 053°48'2121.5 170 / 151020.1 10.2 8.3
2017-Oct-20 05:00N 46°36' W 054°18'5819.2 170 / 141020.7 10.3 8.3
2017-Oct-20 02:00N 46°36' W 055°42'1817.5 170 / 121021.5 10.5 8.2
2017-Oct-20 01:00N 46°42' W 056°06'1616.5 180 / 151022.0 10.7 7.8
2017-Oct-20 00:00N 46°42' W 056°30'1817.5 180 / 161021.7 10.8 7.4
2017-Oct-19 23:00N 46°48' W 056°54'2121.4 180 / 171021.7 10.9 7.4
2017-Oct-19 22:00N 46°54' W 057°24'2121.3 180 / 161021.8 10.9 7.7
2017-Oct-19 21:00N 47°00' W 057°54'1717.4 170 / 151021.6 10.8 7.6
2017-Oct-19 20:00N 47°06' W 058°18'3919.3 160 / 131022.0 11.1 7.2
2017-Oct-19 18:00N 47°18' W 059°12'2020.2 150 / 111022.5 10.7 5.8
2017-Oct-19 17:00N 47°30' W 059°36'5016.8 150 / 101022.7 10.2 5.8
2017-Oct-19 14:00N 47°54' W 060°42'2020.0 160 / 91022.9 9.3 4.2
2017-Oct-19 13:00N 48°06' W 061°06'1717.1 170 / 51023.0 8.8 4.1
2017-Oct-19 12:00N 48°12' W 061°30'2020.0 180 / 51022.9 8.3 3.4
2017-Oct-19 11:00N 48°24' W 061°54'2110.4 200 / 71022.7 7.6 3.1
2017-Oct-19 09:00N 48°30' W 062°24'1010.0 280 / 71022.8 7.4 3.3
2017-Oct-19 08:00N 48°36' W 062°36'2110.4 300 / 111022.6 8.6 3.1
2017-Oct-19 06:00N 48°42' W 063°06'10 9.9 300 / 141021.8 7.0 2.1
2017-Oct-19 05:00N 48°48' W 063°18'8 7.9 280 / 131021.2 7.3 2.8
2017-Oct-19 04:00N 48°48' W 063°30'10 9.9 280 / 141020.3 7.3 2.4
2017-Oct-19 03:00N 48°54' W 063°42'2110.3 280 / 161020.4 7.6 2.0
2017-Oct-19 01:00N 49°00' W 064°12'10 9.9 270 / 131019.1 7.9 1.8
2017-Oct-19 00:00N 49°06' W 064°24'10 9.9 290 / 231018.1 8.0 1.1
2017-Oct-18 23:00N 49°12' W 064°36'8 7.8 280 / 251017.2 8.2 2.1
2017-Oct-18 22:00N 49°12' W 064°48'4019.8 280 / 311016.3 7.5 1.7
2017-Oct-18 20:00N 49°18' W 065°48'2020.5 260 / 361016.5 7.8 2.4
2017-Oct-18 19:00N 49°12' W 066°18'2120.5 250 / 311017.0 7.4 3.6
2017-Oct-18 18:00N 49°06' W 066°48'2323.1 240 / 291017.1 7.1 3.1
2017-Oct-18 17:00N 48°54' W 067°18'2019.7 240 / 261017.3 7.1 3.3
2017-Oct-18 16:00N 48°54' W 067°48'4321.5 240 / 251017.7 6.9 3.0
2017-Oct-18 14:00N 48°30' W 068°42'1717.0 230 / 201017.7 6.0 2.8
2017-Oct-18 13:00N 48°24' W 069°06'2020.0 240 / 191017.7 6.9 2.4
2017-Oct-18 12:00N 48°12' W 069°30'3417.0 260 / 151017.3 6.7 1.1
2017-Oct-18 10:00N 47°42' W 069°54'5618.6 250 / 91014.7 9.0 3.5
2017-Oct-18 07:00N 47°00' W 070°48'1514.5 230 / 151014.1 10.8 5.2
2017-Oct-18 06:00N 46°48' W 071°00'1413.7 270 / 151014.7 10.6 4.2
2017-Oct-18 05:00N 46°42' W 071°18'3919.5 250 / 141014.2 12.3 5.1
2017-Oct-18 03:00N 46°30' W 072°12'1413.8 210 / 191014.7 12.0 4.3
2017-Oct-18 02:00N 46°24' W 072°30'2713.7 220 / 151015.0 11.2 3.4
2017-Oct-18 00:00N 46°06' W 073°00'2914.6 190 / 131014.9 11.4 3.4
2017-Oct-17 22:00N 45°42' W 073°24'1312.7 210 / 21015.5 14.5 3.3
2017-Oct-17 21:00N 45°30' W 073°30'0 0.0 200 / 131016.3 15.2 2.8
2017-Oct-17 19:00N 45°30' W 073°30'0 0.0 200 / 51018.1 13.2 1.2
2017-Oct-17 17:00N 45°30' W 073°30'0 0.0 180 / 71020.7 9.8-0.1
2017-Oct-17 16:00N 45°30' W 073°30'0 0.0 180 / 81022.1 7.7-0.8
2017-Oct-17 15:00N 45°30' W 073°30'0 0.0 190 / 61023.3 6.1-0.9
2017-Oct-17 14:00N 45°30' W 073°30'0 0.0 190 / 71023.7 5.0-1.3
2017-Oct-17 13:00N 45°30' W 073°30'0 0.0 190 / 71024.0 3.6-1.1
2017-Oct-17 12:00N 45°30' W 073°30'0 0.0 180 / 51024.0 2.8-0.1
2017-Oct-17 11:00N 45°30' W 073°30'0 0.0 230 / 51023.8 2.6 1.3
2017-Oct-17 09:00N 45°30' W 073°30'0 0.0 230 / 41023.6 3.7 1.3
2017-Oct-17 08:00N 45°30' W 073°30'0 0.0 220 / 31023.3 4.5-0.1
2017-Oct-17 06:00N 45°30' W 073°30'0 0.0 250 / 11023.0 5.2-1.2
2017-Oct-17 04:00N 45°30' W 073°30'0 0.0 240 / 41022.9 5.5-1.4
2017-Oct-17 03:00N 45°30' W 073°30'0 0.0 320 / 41022.3 6.2-2.3
2017-Oct-17 01:00N 45°30' W 073°30'0 0.0 340 / 41021.5 7.1 0.5
2017-Oct-17 00:00N 45°30' W 073°30'0 0.0 330 / 51021.0 7.5-0.0
2017-Oct-16 23:00N 45°30' W 073°30'0 0.0 280 / 41020.3 8.1-0.9
2017-Oct-16 21:00N 45°30' W 073°30'0 0.0 300 / 51019.2 8.5-1.5
2017-Oct-16 20:00N 45°30' W 073°30'0 0.0 300 / 21019.0 8.5-1.0
2017-Oct-16 19:00N 45°30' W 073°30'20 6.6 360 / 51018.6 8.2-1.2
2017-Oct-16 16:00N 45°48' W 073°18'7 7.3 340 / 71018.5 6.7-0.2
2017-Oct-16 15:00N 45°54' W 073°12'1514.6 330 / 81018.2 6.4-0.0
2017-Oct-16 14:00N 46°06' W 073°00'1010.3 330 / 71017.5 5.7 0.3
2017-Oct-16 13:00N 46°12' W 072°48'1010.2 310 / 101016.5 5.5 0.8
2017-Oct-16 12:00N 46°18' W 072°36'1413.8 320 / 81015.3 5.7 0.7
2017-Oct-16 11:00N 46°24' W 072°18'2813.8 290 / 111013.7 5.0 1.1
2017-Oct-16 09:00N 46°36' W 071°42'2020.4 270 / 201008.7 6.5 2.4
2017-Oct-16 08:00N 46°48' W 071°18'1717.5 240 / 111006.1 7.4 2.1
2017-Oct-16 07:00N 46°54' W 070°54'7719.3 280 / 111001.4 9.2 3.0
2017-Oct-16 03:00N 47°54' W 069°42'4321.6 060 / 2993.7 5.3 4.3
2017-Oct-16 01:00N 48°30' W 069°06'1717.0 010 / 26993.8 4.6 4.4
2017-Oct-16 00:00N 48°36' W 068°42'2019.9 040 / 23994.2 5.4 5.1
2017-Oct-15 23:00N 48°48' W 068°18'2019.8 060 / 30996.2 5.0 4.6
2017-Oct-15 22:00N 49°00' W 067°54'4321.6 060 / 32999.0 4.8 4.2
2017-Oct-15 20:00N 49°18' W 066°54'1716.7 050 / 281004.9 5.6 4.3
2017-Oct-15 19:00N 49°24' W 066°30'3919.5 070 / 221008.1 6.4 4.5
2017-Oct-15 17:00N 49°24' W 065°30'2019.5 100 / 101014.0 7.4 2.5
2017-Oct-15 16:00N 49°24' W 065°00'20 9.8 100 / 101016.2 7.3 2.6
2017-Oct-15 14:00N 49°24' W 064°30'8 7.8 210 / 121019.3 6.7 2.7
2017-Oct-15 13:00N 49°24' W 064°18'1313.2 220 / 31019.6 6.7 4.8
2017-Oct-15 12:00N 49°18' W 064°00'17 8.4 220 / 71020.5 6.7 4.8
2017-Oct-15 10:00N 49°12' W 063°36'10 9.9 230 / 41019.5 7.2 3.7
2017-Oct-15 09:00N 49°06' W 063°24'3311.0 300 / 101019.6 7.5 2.5
2017-Oct-15 06:00N 48°48' W 062°42'8 7.9 270 / 111018.4 9.4 4.1
2017-Oct-15 05:00N 48°48' W 062°30'10 9.9 290 / 181017.4 9.6 5.5
2017-Oct-15 04:00N 48°42' W 062°18'10 9.9 290 / 231016.0 9.7 6.7
2017-Oct-15 03:00N 48°36' W 062°06'1010.0 280 / 221015.3 11.8 7.1
2017-Oct-15 02:00N 48°30' W 061°54'2019.9 250 / 271014.4 11.2 8.9
2017-Oct-15 01:00N 48°18' W 061°30'1717.1 240 / 281013.9 11.6 9.7
2017-Oct-15 00:00N 48°12' W 061°06'2020.0 230 / 221013.8 11.910.5
2017-Oct-14 23:00N 48°00' W 060°42'3718.4 220 / 231013.9 12.411.0
2017-Oct-14 21:00N 47°42' W 059°54'5418.1 210 / 151015.6 12.511.1
2017-Oct-14 18:00N 47°18' W 058°42'1717.4 200 / 141018.5 12.4 9.7
2017-Oct-14 17:00N 47°12' W 058°18'1717.4 200 / 141019.6 12.2 9.3
2017-Oct-14 16:00N 47°06' W 057°54'1413.7 220 / 171020.7 12.1 8.7
2017-Oct-14 15:00N 47°00' W 057°36'1717.4 210 / 141022.4 11.9 8.8
2017-Oct-14 14:00N 46°54' W 057°12'1717.5 200 / 151024.0 11.8 7.6
2017-Oct-14 13:00N 46°48' W 056°48'3718.7 210 / 161025.3 11.4 7.0
2017-Oct-14 11:00N 46°42' W 055°54'7017.6 220 / 131027.0 10.8 5.5
2017-Oct-14 07:00N 46°36' W 054°12'1817.6 240 / 161027.8 9.2 2.5
2017-Oct-14 06:00N 46°30' W 053°48'3919.5 240 / 131028.1 8.9 3.4
2017-Oct-14 04:00N 46°42' W 052°54'1818.5 250 / 101029.3 7.2 2.3
2017-Oct-14 03:00N 47°00' W 052°48'2525.3 230 / 121028.6 6.9 2.4
2017-Oct-14 02:00N 47°24' W 052°36'1 7.3 230 / 121028.9 6.8 2.0
2017-Oct-14 01:49N 47°25' W 052°38'719.4
2017-Oct-14 01:29N 47°31' W 052°35'510.8
2017-Oct-14 01:00N 47°34' W 052°42'1 0.9
2017-Oct-14 00:08N 47°33' W 052°43'0 0.0
2017-Oct-13 23:56N 47°33' W 052°43'0 0.0
2017-Oct-13 23:26N 47°33' W 052°43'3 5.8
2017-Oct-13 23:00N 47°36' W 052°42'3 7.1 220 / 61029.5 4.3 0.7
2017-Oct-13 22:38N 47°33' W 052°43'0 0.0
2017-Oct-13 22:26N 47°33' W 052°43'3 5.8
2017-Oct-13 22:00N 47°36' W 052°42'0 0.0 200 / 51029.3 6.5 1.0
2017-Oct-13 21:00N 47°36' W 052°42'0 0.0 210 / 41029.1 6.8 0.8
2017-Oct-13 20:00N 47°36' W 052°42'0 0.0 260 / 81028.8 8.1-0.6
2017-Oct-13 18:00N 47°36' W 052°42'0 0.0 320 / 41028.7 8.1-0.8
2017-Oct-13 17:00N 47°36' W 052°42'0 0.0 300 / 61028.8 8.3-0.7
2017-Oct-13 15:00N 47°36' W 052°42'0 0.0 350 / 61028.8 6.0 0.8
2017-Oct-13 12:00N 47°36' W 052°42'0 0.0 340 / 61028.4 5.8-1.0
2017-Oct-13 11:00N 47°36' W 052°42'4 4.0 330 / 21027.7 5.0-0.4
2017-Oct-13 10:00N 47°36' W 052°36'1818.5 300 / 191025.7 5.2 0.8
2017-Oct-13 09:00N 47°18' W 052°42'2424.3 280 / 121025.5 4.6 1.1
2017-Oct-13 08:00N 46°54' W 052°48'1312.7 290 / 121024.9 4.5 0.8
2017-Oct-13 07:00N 46°42' W 052°54'1817.5 300 / 121024.4 4.6 1.0
2017-Oct-13 06:00N 46°36' W 053°18'1817.6 340 / 141024.1 5.6 1.4
2017-Oct-13 05:00N 46°30' W 053°42'2121.5 340 / 121023.7 6.6 3.1
2017-Oct-13 04:00N 46°36' W 054°12'1616.5 350 / 131023.0 7.4 3.1
2017-Oct-13 03:00N 46°36' W 054°36'4120.6 360 / 171022.8 7.7 2.0
2017-Oct-13 01:00N 46°36' W 055°36'1817.5 350 / 231022.5 8.2 2.3
2017-Oct-13 00:00N 46°42' W 056°00'2120.6 330 / 221022.4 8.8 1.8
2017-Oct-12 23:00N 46°42' W 056°30'3919.4 310 / 191022.3 9.1 2.1
2017-Oct-12 21:00N 46°54' W 057°24'2121.3 300 / 241022.1 9.2 2.2
2017-Oct-12 20:00N 47°00' W 057°54'1717.4 310 / 201021.9 8.9 2.4
2017-Oct-12 19:00N 47°06' W 058°18'2121.3 300 / 231021.7 10.6 1.7
2017-Oct-12 18:00N 47°12' W 058°48'   310 / 241022.2 10.2 0.5
Track history (hours):
 
Tides and Currents Weather Stations Pressure Air Temp Water Temp Dewpoint Dewpoint Depression Visibility Wind Speed Wind Dir Waves Ship Positions

Oceanex Avalon

Last reported at 2017-Oct-22 17:00 UTC. Time now 2017-Oct-22 17:46 UTC.
Position N 49°24' W 064°06'.

Length 149 m; draft 7.8 m.

Type: Cargo ship. MMSI: 316006074.

Wind from 300 at 15 knots

Barometer 1033.2 mb
Air temperature 0.8 ° C
Dewpoint -5.7 ° C

Date/timePositionNaut miles runAvg speedWind from/ knotsBaromVisibWave heightAir tempDewpointWater temp
2017-Oct-22 17:00N 49°24' W 064°06'10 9.9 300 / 151033.2 0.8-5.7
2017-Oct-22 16:00N 49°18' W 063°54'10 9.9 310 / 161033.1 0.9-6.5
2017-Oct-22 15:00N 49°12' W 063°42'30 9.9 320 / 171033.3 0.8-6.5
2017-Oct-22 12:00N 48°54' W 063°06'8 7.9 330 / 191032.2 0.7-6.7
2017-Oct-22 11:00N 48°54' W 062°54'1313.3 330 / 171031.3 1.1-6.4
2017-Oct-22 10:00N 48°48' W 062°36'10 9.9 340 / 221029.7 1.2-6.6
2017-Oct-22 09:00N 48°42' W 062°24'7014.0 340 / 221028.8 1.8-5.2
2017-Oct-22 04:00N 48°06' W 060°54'3316.7 330 / 191023.4 5.0-4.4
2017-Oct-22 02:00N 47°48' W 060°12'1717.2 340 / 221021.2 6.1-1.0
2017-Oct-22 01:00N 47°42' W 059°48'1717.2 310 / 281020.1 6.8 1.6
2017-Oct-22 00:00N 47°36' W 059°24'1413.5 330 / 301018.3 6.4 2.4
2017-Oct-21 23:00N 47°30' W 059°06'6115.2 300 / 121018.7 5.9 1.7
2017-Oct-21 19:00N 47°30' W 057°36'1616.2 320 / 201011.2 8.0 2.0
2017-Oct-21 18:00N 47°30' W 057°12'1616.2 300 / 221009.3 8.5 2.7
2017-Oct-21 17:00N 47°30' W 056°48'3718.6 280 / 251007.2 9.1 3.6
2017-Oct-21 15:00N 47°06' W 056°06'1818.5 270 / 291006.8 8.7 4.2
2017-Oct-21 14:00N 46°48' W 056°00'1817.5 280 / 271006.2 8.8 4.1
2017-Oct-21 13:00N 46°42' W 055°36'1413.7 290 / 351005.1 8.7 3.8
2017-Oct-21 12:00N 46°36' W 055°18'1616.5 290 / 331003.7 8.9 3.9
2017-Oct-21 11:00N 46°36' W 054°54'1616.5 290 / 371001.9 8.7 3.2
2017-Oct-21 10:00N 46°36' W 054°30'1616.5 290 / 351000.5 8.4 3.2
2017-Oct-21 09:00N 46°36' W 054°06'1817.6 290 / 33999.4 8.5 3.3
2017-Oct-21 08:00N 46°30' W 053°42'3517.5 280 / 33998.2 8.9 3.7
2017-Oct-21 06:00N 46°42' W 052°54'5518.2 250 / 14998.0 7.8 4.5
2017-Oct-21 03:00N 47°36' W 052°42'218.0 250 / 11997.5 10.9 7.6
2017-Oct-21 02:53N 47°34' W 052°42'1 1.4
2017-Oct-21 02:21N 47°33' W 052°43'3 7.1
2017-Oct-21 02:00N 47°36' W 052°42'360.4 220 / 9998.4 11.0 8.1
2017-Oct-21 01:57N 47°33' W 052°43'0 0.0
2017-Oct-21 01:10N 47°33' W 052°43'314.6
2017-Oct-21 01:00N 47°36' W 052°42'3101.0 220 / 7999.0 11.6 9.2
2017-Oct-21 00:58N 47°33' W 052°43'0 0.0
2017-Oct-21 00:16N 47°33' W 052°43'3 9.3
2017-Oct-21 00:00N 47°36' W 052°42'320.4 230 / 10999.6 12.810.6
2017-Oct-20 23:52N 47°33' W 052°43'3 2.9
2017-Oct-20 23:00N 47°36' W 052°42'334.0 220 / 101000.3 13.311.2
2017-Oct-20 22:55N 47°33' W 052°43'0 0.0
2017-Oct-20 22:28N 47°33' W 052°43'3 5.4
2017-Oct-20 22:00N 47°36' W 052°42'3101.0 220 / 101001.0 13.411.1
2017-Oct-20 21:58N 47°33' W 052°43'0 0.0
2017-Oct-20 21:25N 47°33' W 052°43'3 1.8
2017-Oct-20 20:00N 47°36' W 052°42'3 2.9 220 / 131002.7 14.312.1
2017-Oct-20 19:07N 47°33' W 052°43'320.5
2017-Oct-20 19:00N 47°36' W 052°42'0 0.0 220 / 151003.2 14.512.8
2017-Oct-20 18:00N 47°36' W 052°42'0 0.0 220 / 191004.0 15.511.9
2017-Oct-20 17:00N 47°36' W 052°42'0 0.0 220 / 211005.3 15.811.6
2017-Oct-20 16:00N 47°36' W 052°42'0 0.0 220 / 181006.8 15.511.6
2017-Oct-20 15:00N 47°36' W 052°42'0 0.0 220 / 181008.8 15.211.1
2017-Oct-20 14:00N 47°36' W 052°42'0 0.0 210 / 131010.4 13.610.6
2017-Oct-20 13:00N 47°36' W 052°42'0 0.0 200 / 131012.2 12.310.0
2017-Oct-20 12:00N 47°36' W 052°42'4 4.0 220 / 161013.4 12.1 9.6
2017-Oct-20 11:00N 47°36' W 052°36'1818.5 180 / 171015.0 13.9 9.5
2017-Oct-20 10:00N 47°18' W 052°42'3718.5 200 / 231016.4 9.4 8.4
2017-Oct-20 08:00N 46°42' W 052°54'3919.5 200 / 191019.6 10.0 8.3
2017-Oct-20 06:00N 46°30' W 053°48'2121.5 170 / 151020.1 10.2 8.3
2017-Oct-20 05:00N 46°36' W 054°18'5819.2 170 / 141020.7 10.3 8.3
2017-Oct-20 02:00N 46°36' W 055°42'1817.5 170 / 121021.5 10.5 8.2
2017-Oct-20 01:00N 46°42' W 056°06'1616.5 180 / 151022.0 10.7 7.8
2017-Oct-20 00:00N 46°42' W 056°30'1817.5 180 / 161021.7 10.8 7.4
2017-Oct-19 23:00N 46°48' W 056°54'2121.4 180 / 171021.7 10.9 7.4
2017-Oct-19 22:00N 46°54' W 057°24'2121.3 180 / 161021.8 10.9 7.7
2017-Oct-19 21:00N 47°00' W 057°54'1717.4 170 / 151021.6 10.8 7.6
2017-Oct-19 20:00N 47°06' W 058°18'3919.3 160 / 131022.0 11.1 7.2
2017-Oct-19 18:00N 47°18' W 059°12'2020.2 150 / 111022.5 10.7 5.8
2017-Oct-19 17:00N 47°30' W 059°36'5016.8 150 / 101022.7 10.2 5.8
2017-Oct-19 14:00N 47°54' W 060°42'2020.0 160 / 91022.9 9.3 4.2
2017-Oct-19 13:00N 48°06' W 061°06'1717.1 170 / 51023.0 8.8 4.1
2017-Oct-19 12:00N 48°12' W 061°30'2020.0 180 / 51022.9 8.3 3.4
2017-Oct-19 11:00N 48°24' W 061°54'2110.4 200 / 71022.7 7.6 3.1
2017-Oct-19 09:00N 48°30' W 062°24'1010.0 280 / 71022.8 7.4 3.3
2017-Oct-19 08:00N 48°36' W 062°36'2110.4 300 / 111022.6 8.6 3.1
2017-Oct-19 06:00N 48°42' W 063°06'10 9.9 300 / 141021.8 7.0 2.1
2017-Oct-19 05:00N 48°48' W 063°18'8 7.9 280 / 131021.2 7.3 2.8
2017-Oct-19 04:00N 48°48' W 063°30'10 9.9 280 / 141020.3 7.3 2.4
2017-Oct-19 03:00N 48°54' W 063°42'2110.3 280 / 161020.4 7.6 2.0
2017-Oct-19 01:00N 49°00' W 064°12'10 9.9 270 / 131019.1 7.9 1.8
2017-Oct-19 00:00N 49°06' W 064°24'10 9.9 290 / 231018.1 8.0 1.1
2017-Oct-18 23:00N 49°12' W 064°36'8 7.8 280 / 251017.2 8.2 2.1
2017-Oct-18 22:00N 49°12' W 064°48'4019.8 280 / 311016.3 7.5 1.7
2017-Oct-18 20:00N 49°18' W 065°48'2020.5 260 / 361016.5 7.8 2.4
2017-Oct-18 19:00N 49°12' W 066°18'2120.5 250 / 311017.0 7.4 3.6
2017-Oct-18 18:00N 49°06' W 066°48'2323.1 240 / 291017.1 7.1 3.1
2017-Oct-18 17:00N 48°54' W 067°18'2019.7 240 / 261017.3 7.1 3.3
2017-Oct-18 16:00N 48°54' W 067°48'4321.5 240 / 251017.7 6.9 3.0
2017-Oct-18 14:00N 48°30' W 068°42'1717.0 230 / 201017.7 6.0 2.8
2017-Oct-18 13:00N 48°24' W 069°06'2020.0 240 / 191017.7 6.9 2.4
2017-Oct-18 12:00N 48°12' W 069°30'3417.0 260 / 151017.3 6.7 1.1
2017-Oct-18 10:00N 47°42' W 069°54'5618.6 250 / 91014.7 9.0 3.5
2017-Oct-18 07:00N 47°00' W 070°48'1514.5 230 / 151014.1 10.8 5.2
2017-Oct-18 06:00N 46°48' W 071°00'1413.7 270 / 151014.7 10.6 4.2
2017-Oct-18 05:00N 46°42' W 071°18'3919.5 250 / 141014.2 12.3 5.1
2017-Oct-18 03:00N 46°30' W 072°12'1413.8 210 / 191014.7 12.0 4.3
2017-Oct-18 02:00N 46°24' W 072°30'2713.7 220 / 151015.0 11.2 3.4
2017-Oct-18 00:00N 46°06' W 073°00'2914.6 190 / 131014.9 11.4 3.4
2017-Oct-17 22:00N 45°42' W 073°24'1312.7 210 / 21015.5 14.5 3.3
2017-Oct-17 21:00N 45°30' W 073°30'0 0.0 200 / 131016.3 15.2 2.8
2017-Oct-17 19:00N 45°30' W 073°30'0 0.0 200 / 51018.1 13.2 1.2
2017-Oct-17 17:00N 45°30' W 073°30'0 0.0 180 / 71020.7 9.8-0.1
2017-Oct-17 16:00N 45°30' W 073°30'0 0.0 180 / 81022.1 7.7-0.8
2017-Oct-17 15:00N 45°30' W 073°30'0 0.0 190 / 61023.3 6.1-0.9
2017-Oct-17 14:00N 45°30' W 073°30'0 0.0 190 / 71023.7 5.0-1.3
2017-Oct-17 13:00N 45°30' W 073°30'0 0.0 190 / 71024.0 3.6-1.1
2017-Oct-17 12:00N 45°30' W 073°30'0 0.0 180 / 51024.0 2.8-0.1
2017-Oct-17 11:00N 45°30' W 073°30'0 0.0 230 / 51023.8 2.6 1.3
2017-Oct-17 09:00N 45°30' W 073°30'0 0.0 230 / 41023.6 3.7 1.3
2017-Oct-17 08:00N 45°30' W 073°30'0 0.0 220 / 31023.3 4.5-0.1
2017-Oct-17 06:00N 45°30' W 073°30'0 0.0 250 / 11023.0 5.2-1.2
2017-Oct-17 04:00N 45°30' W 073°30'0 0.0 240 / 41022.9 5.5-1.4
2017-Oct-17 03:00N 45°30' W 073°30'0 0.0 320 / 41022.3 6.2-2.3
2017-Oct-17 01:00N 45°30' W 073°30'0 0.0 340 / 41021.5 7.1 0.5
2017-Oct-17 00:00N 45°30' W 073°30'0 0.0 330 / 51021.0 7.5-0.0
2017-Oct-16 23:00N 45°30' W 073°30'0 0.0 280 / 41020.3 8.1-0.9
2017-Oct-16 21:00N 45°30' W 073°30'0 0.0 300 / 51019.2 8.5-1.5
2017-Oct-16 20:00N 45°30' W 073°30'0 0.0 300 / 21019.0 8.5-1.0
2017-Oct-16 19:00N 45°30' W 073°30'20 6.6 360 / 51018.6 8.2-1.2
2017-Oct-16 16:00N 45°48' W 073°18'7 7.3 340 / 71018.5 6.7-0.2
2017-Oct-16 15:00N 45°54' W 073°12'1514.6 330 / 81018.2 6.4-0.0
2017-Oct-16 14:00N 46°06' W 073°00'1010.3 330 / 71017.5 5.7 0.3
2017-Oct-16 13:00N 46°12' W 072°48'1010.2 310 / 101016.5 5.5 0.8
2017-Oct-16 12:00N 46°18' W 072°36'1413.8 320 / 81015.3 5.7 0.7
2017-Oct-16 11:00N 46°24' W 072°18'2813.8 290 / 111013.7 5.0 1.1
2017-Oct-16 09:00N 46°36' W 071°42'2020.4 270 / 201008.7 6.5 2.4
2017-Oct-16 08:00N 46°48' W 071°18'1717.5 240 / 111006.1 7.4 2.1
2017-Oct-16 07:00N 46°54' W 070°54'7719.3 280 / 111001.4 9.2 3.0
2017-Oct-16 03:00N 47°54' W 069°42'4321.6 060 / 2993.7 5.3 4.3
2017-Oct-16 01:00N 48°30' W 069°06'1717.0 010 / 26993.8 4.6 4.4
2017-Oct-16 00:00N 48°36' W 068°42'2019.9 040 / 23994.2 5.4 5.1
2017-Oct-15 23:00N 48°48' W 068°18'2019.8 060 / 30996.2 5.0 4.6
2017-Oct-15 22:00N 49°00' W 067°54'4321.6 060 / 32999.0 4.8 4.2
2017-Oct-15 20:00N 49°18' W 066°54'1716.7 050 / 281004.9 5.6 4.3
2017-Oct-15 19:00N 49°24' W 066°30'3919.5 070 / 221008.1 6.4 4.5
2017-Oct-15 17:00N 49°24' W 065°30'2019.5 100 / 101014.0 7.4 2.5
2017-Oct-15 16:00N 49°24' W 065°00'20 9.8 100 / 101016.2 7.3 2.6
2017-Oct-15 14:00N 49°24' W 064°30'8 7.8 210 / 121019.3 6.7 2.7
2017-Oct-15 13:00N 49°24' W 064°18'1313.2 220 / 31019.6 6.7 4.8
2017-Oct-15 12:00N 49°18' W 064°00'17 8.4 220 / 71020.5 6.7 4.8
2017-Oct-15 10:00N 49°12' W 063°36'10 9.9 230 / 41019.5 7.2 3.7
2017-Oct-15 09:00N 49°06' W 063°24'3311.0 300 / 101019.6 7.5 2.5
2017-Oct-15 06:00N 48°48' W 062°42'8 7.9 270 / 111018.4 9.4 4.1
2017-Oct-15 05:00N 48°48' W 062°30'10 9.9 290 / 181017.4 9.6 5.5
2017-Oct-15 04:00N 48°42' W 062°18'10 9.9 290 / 231016.0 9.7 6.7
2017-Oct-15 03:00N 48°36' W 062°06'1010.0 280 / 221015.3 11.8 7.1
2017-Oct-15 02:00N 48°30' W 061°54'2019.9 250 / 271014.4 11.2 8.9
2017-Oct-15 01:00N 48°18' W 061°30'1717.1 240 / 281013.9 11.6 9.7
2017-Oct-15 00:00N 48°12' W 061°06'2020.0 230 / 221013.8 11.910.5
2017-Oct-14 23:00N 48°00' W 060°42'3718.4 220 / 231013.9 12.411.0
2017-Oct-14 21:00N 47°42' W 059°54'5418.1 210 / 151015.6 12.511.1
2017-Oct-14 18:00N 47°18' W 058°42'1717.4 200 / 141018.5 12.4 9.7
2017-Oct-14 17:00N 47°12' W 058°18'1717.4 200 / 141019.6 12.2 9.3
2017-Oct-14 16:00N 47°06' W 057°54'1413.7 220 / 171020.7 12.1 8.7
2017-Oct-14 15:00N 47°00' W 057°36'1717.4 210 / 141022.4 11.9 8.8
2017-Oct-14 14:00N 46°54' W 057°12'1717.5 200 / 151024.0 11.8 7.6
2017-Oct-14 13:00N 46°48' W 056°48'3718.7 210 / 161025.3 11.4 7.0
2017-Oct-14 11:00N 46°42' W 055°54'7017.6 220 / 131027.0 10.8 5.5
2017-Oct-14 07:00N 46°36' W 054°12'1817.6 240 / 161027.8 9.2 2.5
2017-Oct-14 06:00N 46°30' W 053°48'3919.5 240 / 131028.1 8.9 3.4
2017-Oct-14 04:00N 46°42' W 052°54'1818.5 250 / 101029.3 7.2 2.3
2017-Oct-14 03:00N 47°00' W 052°48'2525.3 230 / 121028.6 6.9 2.4
2017-Oct-14 02:00N 47°24' W 052°36'1 7.3 230 / 121028.9 6.8 2.0
2017-Oct-14 01:49N 47°25' W 052°38'719.4
2017-Oct-14 01:29N 47°31' W 052°35'510.8
2017-Oct-14 01:00N 47°34' W 052°42'1 0.9
2017-Oct-14 00:08N 47°33' W 052°43'0 0.0
2017-Oct-13 23:56N 47°33' W 052°43'0 0.0
2017-Oct-13 23:26N 47°33' W 052°43'3 5.8
2017-Oct-13 23:00N 47°36' W 052°42'3 7.1 220 / 61029.5 4.3 0.7
2017-Oct-13 22:38N 47°33' W 052°43'0 0.0
2017-Oct-13 22:26N 47°33' W 052°43'3 5.8
2017-Oct-13 22:00N 47°36' W 052°42'0 0.0 200 / 51029.3 6.5 1.0
2017-Oct-13 21:00N 47°36' W 052°42'0 0.0 210 / 41029.1 6.8 0.8
2017-Oct-13 20:00N 47°36' W 052°42'0 0.0 260 / 81028.8 8.1-0.6
2017-Oct-13 18:00N 47°36' W 052°42'0 0.0 320 / 41028.7 8.1-0.8
2017-Oct-13 17:00N 47°36' W 052°42'0 0.0 300 / 61028.8 8.3-0.7
2017-Oct-13 15:00N 47°36' W 052°42'0 0.0 350 / 61028.8 6.0 0.8
2017-Oct-13 12:00N 47°36' W 052°42'0 0.0 340 / 61028.4 5.8-1.0
2017-Oct-13 11:00N 47°36' W 052°42'4 4.0 330 / 21027.7 5.0-0.4
2017-Oct-13 10:00N 47°36' W 052°36'1818.5 300 / 191025.7 5.2 0.8
2017-Oct-13 09:00N 47°18' W 052°42'2424.3 280 / 121025.5 4.6 1.1
2017-Oct-13 08:00N 46°54' W 052°48'1312.7 290 / 121024.9 4.5 0.8
2017-Oct-13 07:00N 46°42' W 052°54'1817.5 300 / 121024.4 4.6 1.0
2017-Oct-13 06:00N 46°36' W 053°18'1817.6 340 / 141024.1 5.6 1.4
2017-Oct-13 05:00N 46°30' W 053°42'2121.5 340 / 121023.7 6.6 3.1
2017-Oct-13 04:00N 46°36' W 054°12'1616.5 350 / 131023.0 7.4 3.1
2017-Oct-13 03:00N 46°36' W 054°36'4120.6 360 / 171022.8 7.7 2.0
2017-Oct-13 01:00N 46°36' W 055°36'1817.5 350 / 231022.5 8.2 2.3
2017-Oct-13 00:00N 46°42' W 056°00'2120.6 330 / 221022.4 8.8 1.8
2017-Oct-12 23:00N 46°42' W 056°30'3919.4 310 / 191022.3 9.1 2.1
2017-Oct-12 21:00N 46°54' W 057°24'2121.3 300 / 241022.1 9.2 2.2
2017-Oct-12 20:00N 47°00' W 057°54'1717.4 310 / 201021.9 8.9 2.4
2017-Oct-12 19:00N 47°06' W 058°18'2121.3 300 / 231021.7 10.6 1.7
2017-Oct-12 18:00N 47°12' W 058°48'   310 / 241022.2 10.2 0.5

Dump ship's entire track history